sensor_id;sensor_type;location;lat;lon;timestamp;P1;durP1;ratioP1;P2;durP2;ratioP2
14774;SDS011;7479;47.042;15.160;2022-10-18T07:00:00;29.17;;;19.40;;
14774;SDS011;7479;47.042;15.160;2022-10-18T07:26:58;26.93;;;18.87;;
14774;SDS011;7479;47.042;15.160;2022-10-18T07:47:21;32.63;;;22.37;;
14774;SDS011;7479;47.042;15.160;2022-10-18T08:05:51;27.23;;;21.00;;
14774;SDS011;7479;47.042;15.160;2022-10-18T08:23:50;31.60;;;20.87;;
14774;SDS011;7479;47.042;15.160;2022-10-18T08:28:44;26.47;;;19.73;;
14774;SDS011;7479;47.042;15.160;2022-10-18T08:44:09;22.70;;;18.10;;
14774;SDS011;7479;47.042;15.160;2022-10-18T08:49:06;26.47;;;19.23;;
14774;SDS011;7479;47.042;15.160;2022-10-18T08:54:10;25.03;;;17.63;;
14774;SDS011;7479;47.042;15.160;2022-10-18T09:08:56;23.93;;;18.20;;
14774;SDS011;7479;47.042;15.160;2022-10-18T09:14:10;25.43;;;19.90;;
14774;SDS011;7479;47.042;15.160;2022-10-18T09:19:25;23.37;;;18.23;;
14774;SDS011;7479;47.042;15.160;2022-10-18T09:24:30;22.43;;;18.77;;
14774;SDS011;7479;47.042;15.160;2022-10-18T09:29:36;23.17;;;17.17;;
14774;SDS011;7479;47.042;15.160;2022-10-18T09:34:38;19.52;;;16.40;;
14774;SDS011;7479;47.042;15.160;2022-10-18T09:39:41;21.10;;;16.83;;
14774;SDS011;7479;47.042;15.160;2022-10-18T09:44:36;19.35;;;16.83;;
14774;SDS011;7479;47.042;15.160;2022-10-18T09:49:35;21.38;;;16.20;;
14774;SDS011;7479;47.042;15.160;2022-10-18T09:54:34;22.13;;;16.35;;
14774;SDS011;7479;47.042;15.160;2022-10-18T09:59:36;17.77;;;15.77;;
14774;SDS011;7479;47.042;15.160;2022-10-18T10:04:32;17.50;;;15.40;;
14774;SDS011;7479;47.042;15.160;2022-10-18T10:09:26;16.60;;;14.75;;
14774;SDS011;7479;47.042;15.160;2022-10-18T10:14:23;19.17;;;14.27;;
14774;SDS011;7479;47.042;15.160;2022-10-18T10:19:20;18.60;;;14.73;;
14774;SDS011;7479;47.042;15.160;2022-10-18T10:24:23;15.38;;;13.77;;
14774;SDS011;7479;47.042;15.160;2022-10-18T10:34:43;15.40;;;13.90;;
14774;SDS011;7479;47.042;15.160;2022-10-18T10:39:37;16.42;;;14.02;;
14774;SDS011;7479;47.042;15.160;2022-10-18T10:44:35;16.63;;;14.45;;
14774;SDS011;7479;47.042;15.160;2022-10-18T10:49:38;19.58;;;13.73;;
14774;SDS011;7479;47.042;15.160;2022-10-18T10:54:36;15.00;;;13.48;;
14774;SDS011;7479;47.042;15.160;2022-10-18T10:59:36;15.63;;;13.30;;
14774;SDS011;7479;47.042;15.160;2022-10-18T11:04:34;14.38;;;12.90;;
14774;SDS011;7479;47.042;15.160;2022-10-18T11:09:30;16.98;;;14.55;;
14774;SDS011;7479;47.042;15.160;2022-10-18T11:14:35;14.68;;;13.18;;
14774;SDS011;7479;47.042;15.160;2022-10-18T11:19:33;15.15;;;13.65;;
14774;SDS011;7479;47.042;15.160;2022-10-18T11:24:34;15.07;;;13.55;;
14774;SDS011;7479;47.042;15.160;2022-10-18T11:29:32;15.20;;;13.15;;
14774;SDS011;7479;47.042;15.160;2022-10-18T11:34:48;14.80;;;12.98;;
14774;SDS011;7479;47.042;15.160;2022-10-18T11:39:56;15.40;;;13.30;;
14774;SDS011;7479;47.042;15.160;2022-10-18T11:45:04;17.65;;;12.60;;
14774;SDS011;7479;47.042;15.160;2022-10-18T11:50:11;14.68;;;12.15;;
14774;SDS011;7479;47.042;15.160;2022-10-18T12:00:42;16.20;;;12.45;;
14774;SDS011;7479;47.042;15.160;2022-10-18T12:05:40;16.10;;;12.63;;
14774;SDS011;7479;47.042;15.160;2022-10-18T12:10:37;14.10;;;11.63;;
14774;SDS011;7479;47.042;15.160;2022-10-18T12:15:56;12.95;;;11.75;;
14774;SDS011;7479;47.042;15.160;2022-10-18T12:20:50;13.55;;;12.15;;
14774;SDS011;7479;47.042;15.160;2022-10-18T12:25:47;14.02;;;11.63;;
14774;SDS011;7479;47.042;15.160;2022-10-18T12:30:45;12.50;;;11.20;;
14774;SDS011;7479;47.042;15.160;2022-10-18T12:35:50;13.13;;;11.82;;
14774;SDS011;7479;47.042;15.160;2022-10-18T12:40:53;15.25;;;11.48;;
14774;SDS011;7479;47.042;15.160;2022-10-18T12:45:49;15.88;;;11.77;;
14774;SDS011;7479;47.042;15.160;2022-10-18T12:50:44;13.10;;;11.80;;
14774;SDS011;7479;47.042;15.160;2022-10-18T12:55:53;15.80;;;12.95;;
14774;SDS011;7479;47.042;15.160;2022-10-18T13:00:51;14.43;;;12.38;;
14774;SDS011;7479;47.042;15.160;2022-10-18T13:05:54;14.13;;;12.65;;
14774;SDS011;7479;47.042;15.160;2022-10-18T13:16:29;17.10;;;12.60;;
14774;SDS011;7479;47.042;15.160;2022-10-18T13:21:32;15.27;;;13.32;;
14774;SDS011;7479;47.042;15.160;2022-10-18T13:26:38;19.52;;;13.65;;
14774;SDS011;7479;47.042;15.160;2022-10-18T13:31:55;15.35;;;12.93;;
14774;SDS011;7479;47.042;15.160;2022-10-18T13:36:54;15.63;;;13.88;;
14774;SDS011;7479;47.042;15.160;2022-10-18T13:47:36;18.75;;;14.57;;
14774;SDS011;7479;47.042;15.160;2022-10-18T13:52:33;15.77;;;14.27;;
14774;SDS011;7479;47.042;15.160;2022-10-18T13:57:44;17.08;;;14.73;;
14774;SDS011;7479;47.042;15.160;2022-10-18T14:02:56;18.00;;;14.68;;
14774;SDS011;7479;47.042;15.160;2022-10-18T14:08:36;17.75;;;14.98;;
14774;SDS011;7479;47.042;15.160;2022-10-18T14:13:37;19.77;;;15.23;;
14774;SDS011;7479;47.042;15.160;2022-10-18T14:18:36;18.20;;;16.42;;
14774;SDS011;7479;47.042;15.160;2022-10-18T14:23:35;17.58;;;14.85;;
14774;SDS011;7479;47.042;15.160;2022-10-18T14:28:33;17.13;;;15.52;;
14774;SDS011;7479;47.042;15.160;2022-10-18T14:33:51;16.90;;;15.38;;
14774;SDS011;7479;47.042;15.160;2022-10-18T14:38:50;18.95;;;16.15;;
14774;SDS011;7479;47.042;15.160;2022-10-18T14:43:45;19.10;;;16.30;;
14774;SDS011;7479;47.042;15.160;2022-10-18T14:48:39;16.83;;;15.18;;
14774;SDS011;7479;47.042;15.160;2022-10-18T14:53:36;18.02;;;16.13;;
14774;SDS011;7479;47.042;15.160;2022-10-18T14:58:32;20.13;;;16.02;;
14774;SDS011;7479;47.042;15.160;2022-10-18T15:03:30;19.83;;;17.17;;
14774;SDS011;7479;47.042;15.160;2022-10-18T15:08:27;21.73;;;17.33;;
14774;SDS011;7479;47.042;15.160;2022-10-18T15:13:27;19.63;;;17.27;;
14774;SDS011;7479;47.042;15.160;2022-10-18T15:18:23;19.48;;;16.65;;
14774;SDS011;7479;47.042;15.160;2022-10-18T15:23:20;19.02;;;16.50;;
14774;SDS011;7479;47.042;15.160;2022-10-18T15:28:20;22.33;;;16.98;;
14774;SDS011;7479;47.042;15.160;2022-10-18T15:33:22;20.08;;;17.20;;
14774;SDS011;7479;47.042;15.160;2022-10-18T15:38:23;24.73;;;18.45;;
14774;SDS011;7479;47.042;15.160;2022-10-18T15:43:34;20.33;;;18.15;;
14774;SDS011;7479;47.042;15.160;2022-10-18T15:48:30;24.45;;;17.42;;
14774;SDS011;7479;47.042;15.160;2022-10-18T15:53:31;26.23;;;18.13;;
14774;SDS011;7479;47.042;15.160;2022-10-18T15:58:37;19.30;;;17.27;;
14774;SDS011;7479;47.042;15.160;2022-10-18T16:03:34;20.58;;;17.55;;
14774;SDS011;7479;47.042;15.160;2022-10-18T16:08:30;19.48;;;17.42;;
14774;SDS011;7479;47.042;15.160;2022-10-18T16:13:27;23.35;;;17.70;;
14774;SDS011;7479;47.042;15.160;2022-10-18T16:18:21;22.95;;;18.15;;
14774;SDS011;7479;47.042;15.160;2022-10-18T16:23:19;23.25;;;19.30;;
14774;SDS011;7479;47.042;15.160;2022-10-18T16:28:15;26.58;;;20.77;;
14774;SDS011;7479;47.042;15.160;2022-10-18T16:33:10;27.63;;;21.45;;
14774;SDS011;7479;47.042;15.160;2022-10-18T16:38:10;22.35;;;19.52;;
14774;SDS011;7479;47.042;15.160;2022-10-18T16:43:13;27.00;;;20.25;;
14774;SDS011;7479;47.042;15.160;2022-10-18T16:48:07;24.70;;;20.65;;
14774;SDS011;7479;47.042;15.160;2022-10-18T16:53:03;33.33;;;27.95;;
14774;SDS011;7479;47.042;15.160;2022-10-18T16:57:58;28.65;;;22.98;;
14774;SDS011;7479;47.042;15.160;2022-10-18T17:02:52;30.00;;;24.20;;
14774;SDS011;7479;47.042;15.160;2022-10-18T17:07:46;29.17;;;23.60;;
14774;SDS011;7479;47.042;15.160;2022-10-18T17:12:39;25.58;;;22.88;;
14774;SDS011;7479;47.042;15.160;2022-10-18T17:17:35;27.23;;;22.88;;
14774;SDS011;7479;47.042;15.160;2022-10-18T17:22:29;28.25;;;22.23;;
14774;SDS011;7479;47.042;15.160;2022-10-18T17:27:23;80.53;;;61.95;;
14774;SDS011;7479;47.042;15.160;2022-10-18T17:32:16;50.22;;;35.03;;
14774;SDS011;7479;47.042;15.160;2022-10-18T17:37:12;46.08;;;32.42;;
14774;SDS011;7479;47.042;15.160;2022-10-18T17:42:05;35.25;;;24.98;;
14774;SDS011;7479;47.042;15.160;2022-10-18T17:46:59;31.33;;;22.80;;
14774;SDS011;7479;47.042;15.160;2022-10-18T17:51:52;38.78;;;25.98;;
14774;SDS011;7479;47.042;15.160;2022-10-18T17:56:48;36.78;;;25.40;;
14774;SDS011;7479;47.042;15.160;2022-10-18T18:01:45;36.05;;;24.17;;
14774;SDS011;7479;47.042;15.160;2022-10-18T18:06:39;36.10;;;26.33;;
14774;SDS011;7479;47.042;15.160;2022-10-18T18:11:33;29.83;;;22.77;;
14774;SDS011;7479;47.042;15.160;2022-10-18T18:16:29;25.42;;;20.20;;
14774;SDS011;7479;47.042;15.160;2022-10-18T18:21:23;23.77;;;19.40;;
14774;SDS011;7479;47.042;15.160;2022-10-18T18:26:18;25.38;;;20.88;;
14774;SDS011;7479;47.042;15.160;2022-10-18T18:31:13;28.15;;;19.77;;
14774;SDS011;7479;47.042;15.160;2022-10-18T18:36:09;23.52;;;19.15;;
14774;SDS011;7479;47.042;15.160;2022-10-18T18:41:04;23.73;;;19.70;;
